METAR Data
IDs: Format: Raw Decoded Include TAF

Data at: 1148 UTC 16 Oct 2018

PAFM 161056Z AUTO 02005KT 10SM OVC050 02/M06 A2950 RMK AO2 SLP005 T00171061 FZRANO
PAFM 160956Z AUTO 03010KT 10SM BKN050 OVC110 02/M06 A2954 RMK AO2 SLP017 T00221056 FZRANO
PAFM 160856Z AUTO 02009KT 10SM BKN110 02/M06 A2956 RMK AO2 SLP022 T00221056 58017 FZRANO
PAFM 160756Z AUTO 02012KT 10SM CLR 02/M06 A2958 RMK AO2 SLP031 T00221056 400281022 FZRANO
PAFM 160656Z AUTO 05010KT 10SM FEW110 02/M05 A2960 RMK AO2 SLP039 T00221050 FZRANO
PAFM 160556Z AUTO 04010G16KT 10SM FEW120 02/M05 A2960 RMK AO2 SLP038 T00221050 10022 20017 56028 FZRANO
PAFM 160456Z AUTO 04010KT 10SM SCT120 02/M05 A2963 RMK AO2 SLP046 T00221050 FZRANO
PAFM 160356Z AUTO 03009KT 10SM SCT120 02/M04 A2966 RMK AO2 SLP057 T00221044 FZRANO
PAFM 160256Z AUTO 03008KT 10SM CLR 02/M04 A2969 RMK AO2 SLP066 T00221044 56028 FZRANO
PAFM 160156Z AUTO 04010KT 10SM CLR 02/M04 A2971 RMK AO2 SLP076 T00221039 FZRANO
PAFM 160056Z AUTO 04009G19KT 10SM CLR 02/M04 A2973 RMK AO2 SLP083 T00221044 FZRANO
PAFM 152356Z AUTO 06007KT 10SM CLR 02/M04 A2977 RMK AO2 SLP096 T00221044 10028 21022 58022 FZRANO
PAFM 152256Z AUTO 04011KT 10SM CLR 02/M04 A2979 RMK AO2 SLP103 T00221044 FZRANO
PAFM 152156Z AUTO 03013G16KT 10SM CLR 02/M04 A2981 RMK AO2 SLP109 T00171044 FZRANO
PAFM 151956Z AUTO 03012KT 10SM CLR 00/M05 A2985 RMK AO2 SLP122 T00001050 FZRANO
PAFM 151856Z AUTO 05008KT 10SM CLR M02/M04 A2987 RMK AO2 SLP130 T10171044 FZRANO
PAFM 151756Z AUTO 03009KT 10SM CLR M02/M04 A2987 RMK AO2 SLP128 T10221044 11011 21022 55002 FZRANO
PAFM 151656Z AUTO 05009KT 10SM CLR M02/M04 A2986 RMK AO2 SLP127 T10221044 FZRANO
PAFM 151556Z AUTO 02010KT 10SM CLR M02/M04 A2986 RMK AO2 SLP125 T10171039 FZRANO
PAFM 151456Z AUTO 03008KT 10SM CLR M02/M04 A2987 RMK AO2 SLP130 T10221039 58009 FZRANO
PAFM 151356Z AUTO 03009KT 10SM CLR M01/M03 A2988 RMK AO2 SLP133 T10111033 FZRANO
PAFM 151256Z AUTO 03008KT 10SM CLR M02/M03 A2990 RMK AO2 SLP138 T10171033 FZRANO
PAFM 151156Z AUTO 04010KT 10SM CLR M02/M03 A2990 RMK AO2 SLP140 T10171028 10000 21028 56002 FZRANO
PAFM 151056Z AUTO 03009KT 10SM CLR M02/M03 A2990 RMK AO2 SLP140 T10171028 FZRANO
PAFM 150856Z AUTO 02006KT 10SM CLR M02/M03 A2991 RMK AO2 SLP141 T10171028 51007 FZRANO
PAFM 150756Z AUTO 01007KT 10SM CLR M02/M02 A2990 RMK AO2 SLP139 T10221022 400501033 FZRANO
PAFM 150656Z AUTO 05004KT 10SM CLR M02/M03 A2990 RMK AO2 SLP138 T10171028 FZRANO
PAFM 150556Z AUTO 02006KT 10SM CLR M01/M02 A2989 RMK AO2 SLP135 T10061017 10050 21011 55000 FZRANO
PAFM 150456Z AUTO 03007KT 10SM CLR M01/M02 A2988 RMK AO2 SLP134 T10061017 FZRANO
PAFM 150356Z AUTO 01005KT 10SM CLR 00/M01 A2989 RMK AO2 SLP134 T00001006 FZRANO
PAFM 150256Z AUTO 00000KT 10SM CLR 01/M01 A2989 RMK AO2 SLP134 T00111006 56004 FZRANO
PAFM 150156Z AUTO 00000KT 10SM CLR 04/00 A2989 RMK AO2 SLP135 T00440000
PAFM 150056Z AUTO 00000KT 10SM CLR 04/00 A2989 RMK AO2 SLP137 T00440000
PAFM 142356Z AUTO 05003KT 10SM CLR 04/01 A2990 RMK AO2 SLP138 T00390011 10039 21028 50003